Time;durP1;ratioP1;P1;durP2;ratioP2;P2;SDS_P1;SDS_P2;PMS_P1;PMS_P2;Temp;Humidity;BMP_temperature;BMP_pressure;BME280_temperature;BME280_humidity;BME280_pressure;Samples;Min_cycle;Max_cycle;Signal;HPM_P1;HPM_P2
2022/03/26 00:01:31;;;;;;;;;;;4.60;71.30;;;3.38;67.61;97216.03;4104427;33;20546;-83
2022/03/26 00:04:01;;;;;;;;;;;4.60;71.20;;;3.38;67.66;97215.16;4100957;33;20222;-84
2022/03/26 00:06:29;;;;;;;;;;;4.60;71.40;;;3.37;67.94;97225.19;4124767;33;20215;-83
2022/03/26 00:08:58;;;;;;;;;;;4.60;71.40;;;3.37;67.29;97217.06;4076092;33;20208;-84
2022/03/26 00:11:26;;;;;;;;;;;4.60;71.40;;;3.35;67.58;97221.00;4098965;33;20317;-84
2022/03/26 00:13:55;;;;;;;;;;;4.60;71.30;;;3.36;67.30;97212.69;4100019;33;20429;-83
2022/03/26 00:16:23;;;;;;;;;;;4.60;72.00;;;3.35;67.17;97216.41;4099419;33;20188;-83
2022/03/26 00:18:52;;;;;;;;;;;4.60;71.20;;;3.35;68.00;97227.25;4101628;33;19909;-84
2022/03/26 00:21:22;;;;;;;;;;;4.60;71.30;;;3.34;67.38;97209.31;4102897;33;20183;-84
2022/03/26 00:23:51;;;;;;;;;;;4.60;71.30;;;3.35;67.49;97197.47;4101338;33;20177;-83
2022/03/26 00:26:19;;;;;;;;;;;4.60;71.40;;;3.33;67.85;97204.94;4123386;33;20226;-85
2022/03/26 00:28:49;;;;;;;;;;;4.60;71.50;;;3.33;67.70;97202.25;4099839;33;20196;-84
2022/03/26 00:31:18;;;;;;;;;;;4.60;71.50;;;3.33;67.37;97202.25;4103373;33;20216;-84
2022/03/26 00:33:47;;;;;;;;;;;4.60;71.40;;;3.32;67.36;97205.16;4099500;33;20203;-84
2022/03/26 00:36:15;;;;;;;;;;;4.60;71.30;;;3.31;67.56;97198.91;4096683;33;20223;-84
2022/03/26 00:38:45;;;;;;;;;;;4.50;71.40;;;3.32;67.74;97202.44;4076306;33;20218;-84
2022/03/26 00:41:14;;;;;;;;;;;4.60;71.30;;;3.31;67.57;97204.31;4075107;33;20030;-84
2022/03/26 00:43:42;;;;;;;;;;;4.60;71.40;;;3.31;67.63;97200.78;4052001;33;20213;-84
2022/03/26 00:46:11;;;;;;;;;;;4.50;71.60;;;3.30;67.29;97202.63;4096194;33;19997;-84
2022/03/26 00:48:40;;;;;;;;;;;4.50;71.40;;;3.31;67.51;97198.06;4072381;33;20187;-83
2022/03/26 00:51:08;;;;;;;;;;;4.50;71.40;;;3.30;67.50;97196.41;4073851;33;20206;-84
2022/03/26 00:53:37;;;;;;;;;;;4.50;71.40;;;3.31;67.68;97207.00;4071533;33;20198;-83
2022/03/26 00:56:07;;;;;;;;;;;4.50;71.50;;;3.30;67.76;97215.34;4072961;33;20215;-84
2022/03/26 00:58:35;;;;;;;;;;;4.50;71.60;;;3.28;67.34;97207.44;4077188;33;20560;-84
2022/03/26 01:01:04;;;;;;;;;;;4.50;71.50;;;3.28;67.55;97210.13;4103390;33;20199;-84
2022/03/26 01:03:33;;;;;;;;;;;4.50;71.50;;;3.28;67.26;97212.84;4112219;33;20182;-84
2022/03/26 01:06:01;;;;;;;;;;;4.50;71.50;;;3.28;68.10;97210.13;4092028;33;20469;-84
2022/03/26 01:08:30;;;;;;;;;;;4.50;71.60;;;3.25;67.63;97210.53;4105733;33;20224;-84
2022/03/26 01:10:59;;;;;;;;;;;4.50;71.40;;;3.26;67.52;97209.50;4079046;33;20529;-84
2022/03/26 01:13:31;;;;;;;;;;;4.50;71.60;;;3.26;67.18;97205.94;4102987;33;20432;-84
2022/03/26 01:16:00;;;;;;;;;;;4.50;71.60;;;3.26;67.54;97205.94;4128613;33;20443;-84
2022/03/26 01:18:29;;;;;;;;;;;4.50;71.40;;;3.26;67.28;97206.78;4103978;33;20216;-82
2022/03/26 01:20:57;;;;;;;;;;;4.50;71.30;;;3.25;67.75;97210.53;4078299;33;20208;-82
2022/03/26 01:23:26;;;;;;;;;;;4.50;71.40;;;3.25;67.76;97212.38;4101677;33;20231;-84
2022/03/26 01:25:54;;;;;;;;;;;4.50;71.70;;;3.23;67.39;97216.13;4102160;33;19909;-83
2022/03/26 01:28:23;;;;;;;;;;;4.50;71.50;;;3.24;67.78;97219.69;4102214;33;20048;-83
2022/03/26 01:30:53;;;;;;;;;;;4.50;71.70;;;3.22;67.46;97221.75;4124919;33;20468;-82
2022/03/26 01:33:21;;;;;;;;;;;4.50;71.60;;;3.22;67.94;97221.75;4100113;33;20090;-83
2022/03/26 01:35:50;;;;;;;;;;;4.50;71.90;;;3.21;67.83;97228.19;4099925;33;20194;-83
2022/03/26 01:38:18;;;;;;;;;;;4.50;71.80;;;3.21;67.89;97231.75;4101137;33;20221;-82
2022/03/26 01:40:47;;;;;;;;;;;4.50;71.70;;;3.22;67.56;97232.56;4103446;33;20148;-83
2022/03/26 01:43:15;;;;;;;;;;;4.50;71.70;;;3.20;67.51;97229.22;4103057;33;20187;-83
2022/03/26 01:45:44;;;;;;;;;;;4.40;71.60;;;3.20;67.45;97234.63;4128340;33;20386;-82
2022/03/26 01:48:14;;;;;;;;;;;4.40;71.50;;;3.19;67.71;97236.50;4104475;33;20195;-82
2022/03/26 01:50:42;;;;;;;;;;;4.40;71.50;;;3.19;67.61;97238.38;4106456;33;20373;-83
2022/03/26 01:53:11;;;;;;;;;;;4.40;71.40;;;3.19;67.75;97232.97;4104468;33;20225;-82
2022/03/26 01:55:39;;;;;;;;;;;4.40;71.60;;;3.18;67.91;97231.28;4101592;33;20372;-83
2022/03/26 01:58:09;;;;;;;;;;;4.40;71.60;;;3.18;67.91;97239.41;4101555;33;20218;-83
2022/03/26 02:00:37;;;;;;;;;;;4.40;71.60;;;3.17;67.89;97237.72;4101298;33;20205;-83
2022/03/26 02:03:07;;;;;;;;;;;4.40;71.70;;;3.16;68.06;97244.19;4091655;33;20207;-83
2022/03/26 02:05:37;;;;;;;;;;;4.40;71.80;;;3.17;67.96;97246.69;4081504;33;20253;-83
2022/03/26 02:08:06;;;;;;;;;;;4.40;71.60;;;3.15;67.94;97243.34;4125933;33;20195;-83
2022/03/26 02:10:34;;;;;;;;;;;4.40;71.70;;;3.17;67.78;97248.56;4101956;33;20202;-83
2022/03/26 02:13:04;;;;;;;;;;;4.40;71.80;;;3.15;67.52;97239.81;4103195;33;20207;-83
2022/03/26 02:15:33;;;;;;;;;;;4.40;71.70;;;3.16;67.78;97244.19;4103242;33;20248;-82
2022/03/26 02:18:01;;;;;;;;;;;4.40;71.80;;;3.14;67.57;97247.09;4101516;33;20228;-83
2022/03/26 02:20:31;;;;;;;;;;;4.40;71.80;;;3.13;68.20;97242.72;4099360;33;20225;-83
2022/03/26 02:23:01;;;;;;;;;;;4.40;71.80;;;3.13;68.34;97245.41;4073933;33;20214;-83
2022/03/26 02:25:30;;;;;;;;;;;4.40;71.80;;;3.13;68.27;97242.72;4074541;33;20214;-82
2022/03/26 02:27:58;;;;;;;;;;;4.40;71.80;;;3.13;67.64;97241.88;4099027;33;20189;-83
2022/03/26 02:30:27;;;;;;;;;;;4.40;71.80;;;3.13;67.67;97244.59;4077718;33;20216;-82
2022/03/26 02:32:55;;;;;;;;;;;4.40;71.70;;;3.12;67.46;97253.72;4106220;33;20268;-83
2022/03/26 02:35:24;;;;;;;;;;;4.40;71.60;;;3.12;67.56;97259.97;4104412;33;20215;-82
2022/03/26 02:37:54;;;;;;;;;;;4.40;71.80;;;3.10;68.09;97256.63;4102713;33;20205;-82
2022/03/26 02:40:22;;;;;;;;;;;4.40;71.70;;;3.11;67.48;97249.34;4101361;33;20202;-82
2022/03/26 02:42:51;;;;;;;;;;;4.30;71.70;;;3.11;67.87;97246.66;4102673;33;20214;-82
2022/03/26 02:45:20;;;;;;;;;;;4.30;71.80;;;3.09;68.00;97246.84;4102622;33;20199;-82
2022/03/26 02:47:50;;;;;;;;;;;4.30;72.00;;;3.10;67.76;97250.38;4104571;33;20208;-82
2022/03/26 02:50:19;;;;;;;;;;;4.30;71.70;;;3.10;67.97;97250.38;4081316;33;20205;-83
2022/03/26 02:52:50;;;;;;;;;;;4.30;72.00;;;3.07;67.39;97241.63;4106248;33;20189;-82
2022/03/26 02:55:20;;;;;;;;;;;4.30;71.80;;;3.08;68.19;97245.19;4105048;33;20208;-83
2022/03/26 02:57:49;;;;;;;;;;;4.30;72.00;;;3.07;68.11;97241.63;4101469;33;20503;-82
2022/03/26 03:00:17;;;;;;;;;;;4.30;72.00;;;3.08;68.18;97247.88;4100787;33;20192;-83
2022/03/26 03:02:46;;;;;;;;;;;4.30;72.00;;;3.06;67.87;97248.06;4115208;33;20232;-82
2022/03/26 03:05:14;;;;;;;;;;;4.30;72.00;;;3.04;67.83;97252.84;4072189;33;20214;-82
2022/03/26 03:07:43;;;;;;;;;;;4.30;71.90;;;3.04;67.86;97249.31;4072764;33;20223;-82
2022/03/26 03:10:15;;;;;;;;;;;4.30;72.20;;;3.05;68.49;97259.09;4075527;33;20205;-81
2022/03/26 03:12:45;;;;;;;;;;;4.30;72.00;;;3.03;68.07;97256.56;4092149;33;20219;-81
2022/03/26 03:15:15;;;;;;;;;;;4.30;71.90;;;3.03;67.95;97256.56;4100312;33;20205;-81
2022/03/26 03:17:43;;;;;;;;;;;4.30;71.90;;;3.03;68.28;97259.28;4102853;33;20190;-81
2022/03/26 03:20:12;;;;;;;;;;;4.30;72.00;;;3.03;68.05;97261.97;4104368;33;20197;-82
2022/03/26 03:22:41;;;;;;;;;;;4.30;72.00;;;3.02;67.80;97246.81;4100386;33;20211;-82
2022/03/26 03:25:10;;;;;;;;;;;4.30;72.00;;;3.01;68.04;97242.44;4076440;33;20178;-82
2022/03/26 03:27:40;;;;;;;;;;;4.30;71.90;;;3.01;67.90;97242.44;4076867;33;20442;-82
2022/03/26 03:30:11;;;;;;;;;;;4.30;71.90;;;3.01;68.18;97242.44;4098697;33;20193;-82
2022/03/26 03:32:40;;;;;;;;;;;4.30;72.00;;;3.00;68.52;97235.34;4086452;33;20193;-82
2022/03/26 03:35:09;;;;;;;;;;;4.30;72.10;;;2.99;68.11;97236.38;4071557;33;20238;-82
2022/03/26 03:37:38;;;;;;;;;;;4.30;72.00;;;2.99;67.13;97236.38;4070847;33;20206;-82
2022/03/26 03:40:08;;;;;;;;;;;4.20;71.60;;;3.00;68.06;97234.50;4048945;33;20515;-82
2022/03/26 03:42:37;;;;;;;;;;;4.20;71.80;;;2.99;68.30;97241.78;4070938;33;20430;-82
2022/03/26 03:45:07;;;;;;;;;;;4.20;71.90;;;2.99;67.71;97244.50;4071332;33;20184;-82
2022/03/26 03:47:37;;;;;;;;;;;4.20;71.90;;;2.98;68.57;97237.41;4070542;33;20205;-82
2022/03/26 03:50:07;;;;;;;;;;;4.20;71.90;;;2.96;67.72;97239.47;4071687;33;20440;-82
2022/03/26 03:52:36;;;;;;;;;;;4.20;72.00;;;2.97;68.56;97241.13;4096272;33;20228;-82
2022/03/26 03:55:05;;;;;;;;;;;4.20;72.10;;;2.97;68.23;97234.91;4075160;33;20205;-82
2022/03/26 03:57:34;;;;;;;;;;;4.20;71.90;;;2.97;68.50;97240.31;4073416;33;20196;-83
2022/03/26 04:00:02;;;;;;;;;;;4.20;71.90;;;2.97;68.03;97229.50;4074557;33;20644;-83
2022/03/26 04:02:42;;;;;;;;;;;4.20;71.80;;;2.95;68.21;97229.69;4097299;33;20207;-83
2022/03/26 04:05:11;;;;;;;;;;;4.20;72.10;;;2.96;68.33;97233.22;4072874;33;19929;-83
2022/03/26 04:07:40;;;;;;;;;;;4.20;72.20;;;2.95;67.98;97236.97;4074469;33;20192;-82
2022/03/26 04:10:09;;;;;;;;;;;4.20;71.90;;;2.94;68.14;97225.28;4096092;33;20218;-83
2022/03/26 04:12:38;;;;;;;;;;;4.20;71.80;;;2.92;67.74;97233.63;4073405;33;20163;-83
2022/03/26 04:15:08;;;;;;;;;;;4.20;71.70;;;2.93;68.32;97242.56;4096945;33;20206;-83
2022/03/26 04:17:36;;;;;;;;;;;4.20;71.80;;;2.94;68.01;97243.41;4052470;33;20181;-83
2022/03/26 04:20:09;;;;;;;;;;;4.20;71.60;;;2.94;67.55;97246.13;4076476;33;20214;-82
2022/03/26 04:22:38;;;;;;;;;;;4.20;71.70;;;2.92;67.45;97239.03;4076309;33;20066;-82
2022/03/26 04:25:07;;;;;;;;;;;4.20;72.10;;;2.94;67.92;97244.22;4051483;33;20214;-83
2022/03/26 04:27:36;;;;;;;;;;;4.20;71.70;;;2.94;67.50;97235.28;4075207;33;20193;-83
2022/03/26 04:30:06;;;;;;;;;;;4.20;71.80;;;2.94;67.57;97238.00;4101297;33;20209;-83
2022/03/26 04:32:34;;;;;;;;;;;4.20;71.80;;;2.95;67.99;97232.38;4100542;33;19925;-83
2022/03/26 04:35:03;;;;;;;;;;;4.20;71.80;;;2.97;68.44;97238.44;4101669;33;20190;-83
2022/03/26 04:37:34;;;;;;;;;;;4.20;71.90;;;2.97;68.41;97234.91;4103007;33;20208;-84
2022/03/26 04:40:02;;;;;;;;;;;4.20;71.80;;;2.99;67.99;97241.78;4103399;33;20207;-83
2022/03/26 04:42:31;;;;;;;;;;;4.30;71.90;;;3.04;67.70;97246.59;4102717;33;19909;-83
2022/03/26 04:44:59;;;;;;;;;;;4.30;71.70;;;3.14;67.90;97244.38;4126601;33;20205;-83
2022/03/26 04:47:28;;;;;;;;;;;4.40;71.80;;;3.34;67.53;97247.22;4102435;33;20113;-82
2022/03/26 04:49:56;;;;;;;;;;;4.60;71.90;;;3.57;66.82;97240.69;4101249;33;20179;-83
2022/03/26 04:52:25;;;;;;;;;;;4.80;70.90;;;3.77;65.09;97239.97;4099786;33;20215;-83
2022/03/26 04:54:55;;;;;;;;;;;5.00;70.40;;;3.95;64.26;97242.94;4101082;33;20186;-83
2022/03/26 04:57:24;;;;;;;;;;;5.10;68.40;;;4.09;63.83;97248.41;4103004;33;20200;-83
2022/03/26 04:59:52;;;;;;;;;;;5.20;68.50;;;4.21;63.02;97237.81;4102896;33;20191;-83
2022/03/26 05:02:21;;;;;;;;;;;5.30;67.10;;;4.29;62.66;97243.91;4104073;33;20307;-83
2022/03/26 05:04:49;;;;;;;;;;;5.40;66.40;;;4.34;62.42;97246.00;4102917;33;20190;-83
2022/03/26 05:10:06;;;;;;;;;;;5.60;65.60;;;4.49;61.72;97240.38;4076627;33;20203;-83
2022/03/26 05:12:34;;;;;;;;;;;5.70;65.30;;;4.61;61.52;97240.63;4073049;33;20235;-83
2022/03/26 05:15:03;;;;;;;;;;;5.80;65.10;;;4.71;62.03;97242.94;4097074;33;20197;-83
2022/03/26 05:17:31;;;;;;;;;;;5.90;65.40;;;4.78;62.38;97238.34;4104309;33;20185;-83
2022/03/26 05:20:00;;;;;;;;;;;5.90;65.50;;;4.84;62.45;97247.50;4087517;33;20057;-83
2022/03/26 05:22:29;;;;;;;;;;;6.00;65.80;;;4.88;62.90;97251.50;4080833;33;19926;-83
2022/03/26 05:24:57;;;;;;;;;;;6.10;66.10;;;4.90;62.78;97247.53;4101443;33;20205;-84
2022/03/26 05:27:27;;;;;;;;;;;6.10;66.00;;;4.91;62.74;97246.47;4117945;33;20041;-84
2022/03/26 05:29:56;;;;;;;;;;;6.20;65.80;;;4.94;62.92;97247.94;4089974;33;20191;-83
2022/03/26 05:32:24;;;;;;;;;;;6.30;65.80;;;5.02;63.15;97241.47;4061567;33;20193;-84
2022/03/26 05:34:54;;;;;;;;;;;6.50;65.70;;;5.13;63.09;97240.81;4106300;33;20374;-83
2022/03/26 05:37:23;;;;;;;;;;;6.70;65.40;;;5.32;62.50;97244.56;4127538;33;20195;-83
2022/03/26 05:39:51;;;;;;;;;;;7.10;64.60;;;5.59;61.91;97246.41;4104540;33;20189;-83
2022/03/26 05:42:20;;;;;;;;;;;7.40;63.30;;;5.88;61.18;97246.91;4103561;33;20156;-83
2022/03/26 05:44:50;;;;;;;;;;;7.80;61.90;;;6.18;60.19;97249.13;4068923;33;20430;-83
2022/03/26 05:47:18;;;;;;;;;;;8.20;60.30;;;6.49;58.87;97248.34;4099637;33;19909;-83
2022/03/26 05:49:47;;;;;;;;;;;8.60;58.80;;;6.81;57.98;97251.06;4098081;33;19910;-83
2022/03/26 05:52:16;;;;;;;;;;;9.10;57.60;;;7.11;57.42;97249.59;4098167;33;20211;-83
2022/03/26 05:54:45;;;;;;;;;;;9.40;56.20;;;7.34;56.22;97247.06;4074039;33;20227;-83
2022/03/26 05:57:13;;;;;;;;;;;9.70;55.10;;;7.55;55.49;97250.44;4072438;33;20203;-83
2022/03/26 05:59:42;;;;;;;;;;;10.00;54.10;;;7.73;54.52;97248.78;4073488;33;20229;-83
2022/03/26 06:02:12;;;;;;;;;;;10.20;53.30;;;7.83;54.90;97251.81;4101216;33;20190;-83
2022/03/26 06:04:40;;;;;;;;;;;10.40;52.60;;;7.89;53.97;97259.09;4102858;33;20435;-83
2022/03/26 06:07:09;;;;;;;;;;;10.40;52.10;;;7.87;54.15;97261.22;4105214;33;20187;-83
2022/03/26 06:09:38;;;;;;;;;;;10.40;51.90;;;7.76;54.18;97261.97;4127686;33;20191;-84
2022/03/26 06:12:08;;;;;;;;;;;10.20;52.00;;;7.53;54.65;97260.72;4125754;33;20548;-84
2022/03/26 06:14:36;;;;;;;;;;;9.90;52.70;;;7.26;55.40;97268.31;4103293;33;20160;-84
2022/03/26 06:17:05;;;;;;;;;;;9.50;53.60;;;6.92;56.04;97263.13;4125001;33;20196;-82
2022/03/26 06:19:38;;;;;;;;;;;9.00;54.60;;;6.59;56.72;97266.91;4100717;33;20180;-83
2022/03/26 06:22:07;;;;;;;;;;;8.50;56.00;;;6.29;57.92;97272.94;4100580;33;20080;-82
2022/03/26 06:24:36;;;;;;;;;;;8.10;57.40;;;6.03;58.47;97268.47;4099888;33;20162;-82
2022/03/26 06:27:06;;;;;;;;;;;7.70;58.80;;;5.78;59.58;97267.25;4101818;33;20216;-83
2022/03/26 06:29:36;;;;;;;;;;;7.40;60.00;;;5.58;60.23;97266.47;4104500;33;20186;-82
2022/03/26 06:32:05;;;;;;;;;;;7.10;61.40;;;5.44;60.80;97268.34;4155057;33;20207;-83
2022/03/26 06:34:35;;;;;;;;;;;6.90;62.40;;;5.31;61.07;97270.03;4129425;33;19902;-83
2022/03/26 06:37:04;;;;;;;;;;;6.80;63.30;;;5.20;62.04;97266.09;4076619;33;20190;-83
2022/03/26 06:39:33;;;;;;;;;;;6.60;64.00;;;5.14;62.17;97271.53;4099849;33;20198;-82
2022/03/26 06:42:02;;;;;;;;;;;6.50;64.70;;;5.09;62.62;97272.16;4099651;33;20222;-83
2022/03/26 06:44:30;;;;;;;;;;;6.40;65.10;;;5.03;62.50;97275.69;4100021;33;20187;-82
2022/03/26 06:46:59;;;;;;;;;;;6.40;65.60;;;5.01;63.17;97280.50;4101095;33;20203;-82
2022/03/26 06:49:30;;;;;;;;;;;6.30;66.00;;;4.96;63.21;97278.41;4104059;33;20202;-82
2022/03/26 06:52:00;;;;;;;;;;;6.20;66.20;;;4.96;63.54;97289.25;4102560;33;20465;-82
2022/03/26 06:54:29;;;;;;;;;;;6.20;66.50;;;4.93;63.73;97280.72;4078202;33;20185;-83
2022/03/26 06:56:57;;;;;;;;;;;6.20;66.70;;;4.92;63.89;97288.00;4099970;33;20194;-82
2022/03/26 06:59:26;;;;;;;;;;;6.10;66.90;;;4.93;63.68;97286.97;4077640;33;20211;-82
2022/03/26 07:01:54;;;;;;;;;;;6.10;67.10;;;4.91;64.18;97284.47;4101913;33;20535;-82
2022/03/26 07:04:23;;;;;;;;;;;6.10;67.30;;;4.91;64.30;97279.03;4100626;33;20190;-83
2022/03/26 07:06:51;;;;;;;;;;;6.10;67.50;;;4.93;63.85;97276.09;4101372;33;20199;-83
2022/03/26 07:09:23;;;;;;;;;;;6.10;67.50;;;4.96;63.94;97280.31;4103136;33;20183;-83
2022/03/26 07:11:52;;;;;;;;;;;6.10;67.60;;;4.96;64.20;97274.88;4101562;33;20226;-83
2022/03/26 07:14:20;;;;;;;;;;;6.10;67.60;;;4.99;64.03;97272.56;4103853;33;20255;-83
2022/03/26 07:16:49;;;;;;;;;;;6.10;67.80;;;4.99;63.99;97279.88;4101322;33;20223;-82
2022/03/26 07:19:17;;;;;;;;;;;6.10;67.80;;;5.02;63.87;97288.44;4078820;33;20000;-83
2022/03/26 07:21:46;;;;;;;;;;;6.20;67.80;;;5.04;63.79;97278.19;4077115;33;20206;-82
2022/03/26 07:24:15;;;;;;;;;;;6.20;67.80;;;5.05;64.33;97281.75;4076160;33;20203;-83
2022/03/26 07:26:45;;;;;;;;;;;6.20;67.80;;;5.06;64.27;97292.41;4076198;33;20226;-83
2022/03/26 07:29:13;;;;;;;;;;;6.20;67.90;;;5.07;64.37;97282.38;4101827;33;20199;-83
2022/03/26 07:31:42;;;;;;;;;;;6.20;68.00;;;5.08;64.55;97297.63;4102847;33;20202;-83
2022/03/26 07:34:11;;;;;;;;;;;6.20;68.10;;;5.10;64.05;97290.09;4126342;33;19967;-83
2022/03/26 07:36:39;;;;;;;;;;;6.20;68.00;;;5.13;64.29;97291.56;4101402;33;20193;-83
2022/03/26 07:39:08;;;;;;;;;;;6.20;68.00;;;5.13;64.05;97286.97;4103101;33;20206;-83
2022/03/26 07:41:36;;;;;;;;;;;6.20;68.00;;;5.15;63.87;97301.16;4102331;33;20197;-81
2022/03/26 07:44:07;;;;;;;;;;;6.20;68.00;;;5.16;63.98;97292.00;4102100;33;20219;-81
2022/03/26 07:46:35;;;;;;;;;;;6.30;68.20;;;5.18;63.81;97289.91;4111127;33;20196;-81
2022/03/26 07:49:05;;;;;;;;;;;6.30;68.00;;;5.21;64.04;97283.22;4128417;33;20188;-81
2022/03/26 07:51:33;;;;;;;;;;;6.30;68.00;;;5.24;63.91;97299.09;4155327;33;20547;-81
2022/03/26 07:54:02;;;;;;;;;;;6.30;67.90;;;5.26;63.79;97290.72;4130958;33;20539;-82
2022/03/26 07:56:30;;;;;;;;;;;6.30;67.90;;;5.28;63.73;97288.63;4107020;33;20555;-81
2022/03/26 07:58:59;;;;;;;;;;;6.30;68.00;;;5.29;63.85;97290.31;4106493;33;19902;-81
2022/03/26 08:01:29;;;;;;;;;;;6.30;67.90;;;5.30;63.68;97294.69;4131424;33;20201;-81
2022/03/26 08:03:57;;;;;;;;;;;6.30;67.80;;;5.31;64.04;97294.47;4105310;33;20208;-81
2022/03/26 08:06:26;;;;;;;;;;;6.30;67.90;;;5.31;63.65;97293.66;4150961;32;20196;-81
2022/03/26 08:08:54;;;;;;;;;;;6.40;67.80;;;5.32;63.63;97295.34;4104749;33;20218;-81
2022/03/26 08:11:23;;;;;;;;;;;6.40;67.70;;;5.32;63.74;97298.88;4105185;33;20266;-81
2022/03/26 08:13:51;;;;;;;;;;;6.40;67.80;;;5.31;63.85;97294.47;4130311;33;20189;-81
2022/03/26 08:16:20;;;;;;;;;;;6.40;67.70;;;5.32;63.90;97292.63;4132483;33;20206;-81
2022/03/26 08:18:50;;;;;;;;;;;6.40;67.70;;;5.31;64.13;97293.66;4133169;33;20124;-81
2022/03/26 08:21:20;;;;;;;;;;;6.40;67.70;;;5.29;63.95;97287.59;4130677;33;20126;-81
2022/03/26 08:23:48;;;;;;;;;;;6.40;67.70;;;5.28;63.86;97294.06;4128291;33;20250;-81
2022/03/26 08:26:29;;;;;;;;;;;6.40;67.80;;;5.26;63.91;97283.44;4106040;33;20188;-82
2022/03/26 08:28:59;;;;;;;;;;;6.40;67.90;;;5.23;64.12;97281.94;4097829;33;20187;-81
2022/03/26 08:31:31;;;;;;;;;;;6.30;67.90;;;5.22;64.21;97284.88;4074373;33;20202;-81
2022/03/26 08:34:02;;;;;;;;;;;6.30;68.00;;;5.20;64.15;97287.81;4051620;33;20251;-82
2022/03/26 08:36:31;;;;;;;;;;;6.30;68.10;;;5.16;64.29;97281.13;4077442;33;20564;-83
2022/03/26 08:39:00;;;;;;;;;;;6.30;68.10;;;5.15;64.32;97289.50;4076924;33;20429;-82
2022/03/26 08:41:29;;;;;;;;;;;6.30;68.20;;;5.13;64.17;97278.81;4076230;33;20185;-83
2022/03/26 08:43:57;;;;;;;;;;;6.30;68.40;;;5.11;64.40;97275.47;4051570;33;19944;-83
2022/03/26 08:46:26;;;;;;;;;;;6.30;68.40;;;5.10;65.00;97279.22;4049099;33;20219;-82
2022/03/26 08:48:56;;;;;;;;;;;6.20;68.40;;;5.09;64.58;97274.03;4094481;33;20218;-83
2022/03/26 08:51:26;;;;;;;;;;;6.20;68.40;;;5.09;65.02;97274.03;4048094;33;20189;-83
2022/03/26 08:53:54;;;;;;;;;;;6.20;68.40;;;5.05;64.91;97269.00;4095168;33;20188;-82
2022/03/26 08:56:23;;;;;;;;;;;6.20;68.60;;;5.04;64.87;97263.81;4073114;33;20206;-82
2022/03/26 08:58:52;;;;;;;;;;;6.20;68.60;;;5.03;65.02;97262.13;4076956;33;20545;-82
2022/03/26 09:01:21;;;;;;;;;;;6.20;68.70;;;5.02;64.97;97260.47;4052748;33;20184;-82
2022/03/26 09:03:50;;;;;;;;;;;6.20;68.80;;;5.00;65.22;97260.69;4051977;33;19910;-82
2022/03/26 09:06:19;;;;;;;;;;;6.20;68.80;;;5.00;65.23;97260.69;4072122;33;19902;-82
2022/03/26 09:08:51;;;;;;;;;;;6.20;68.90;;;4.99;64.90;97263.59;4115745;33;23145;-82
2022/03/26 09:11:20;;;;;;;;;;;6.10;68.90;;;4.98;65.23;97261.91;4127387;33;20229;-82
2022/03/26 09:13:48;;;;;;;;;;;6.10;68.90;;;4.97;65.29;97257.56;4104419;33;19909;-82
2022/03/26 09:16:17;;;;;;;;;;;6.10;68.90;;;4.94;65.04;97244.41;4132366;33;20184;-82
2022/03/26 09:18:46;;;;;;;;;;;6.10;69.00;;;4.94;65.31;97255.25;4109295;33;20465;-82
2022/03/26 09:21:14;;;;;;;;;;;6.10;69.10;;;4.91;65.77;97246.47;4159249;33;20221;-81
2022/03/26 09:23:43;;;;;;;;;;;6.10;69.20;;;4.90;65.80;97250.22;4138252;33;20096;-83
2022/03/26 09:26:13;;;;;;;;;;;6.10;69.20;;;4.90;65.30;97249.41;4135239;33;20195;-83
2022/03/26 09:28:41;;;;;;;;;;;6.10;69.20;;;4.88;65.53;97240.63;4133273;33;20167;-82
2022/03/26 09:31:10;;;;;;;;;;;6.10;69.20;;;4.88;65.55;97236.03;4127423;33;20457;-82
2022/03/26 09:33:39;;;;;;;;;;;6.10;69.30;;;4.88;65.80;97230.59;4152024;33;20200;-82
2022/03/26 09:36:07;;;;;;;;;;;6.10;69.20;;;4.86;65.81;97234.59;4116053;33;19904;-82
2022/03/26 09:38:36;;;;;;;;;;;6.10;69.40;;;4.84;65.96;97228.53;4133363;33;20199;-82
2022/03/26 09:41:06;;;;;;;;;;;6.10;69.40;;;4.82;65.68;97231.47;4140756;33;20182;-83
2022/03/26 09:43:36;;;;;;;;;;;6.10;69.50;;;4.81;65.86;97227.06;4164963;33;20194;-82
2022/03/26 09:46:05;;;;;;;;;;;6.00;69.30;;;4.80;65.58;97230.81;4174669;33;20506;-82
2022/03/26 09:48:33;;;;;;;;;;;6.00;69.40;;;4.80;65.83;97227.25;4144004;33;20156;-82
2022/03/26 09:51:02;;;;;;;;;;;6.00;69.50;;;4.78;66.36;97219.34;4111885;33;20190;-82
2022/03/26 09:53:31;;;;;;;;;;;6.00;69.50;;;4.77;65.57;97223.09;4136470;33;20157;-82
2022/03/26 09:55:59;;;;;;;;;;;6.00;69.60;;;4.75;66.11;97219.75;4149576;33;20200;-83
2022/03/26 09:58:28;;;;;;;;;;;6.00;69.70;;;4.75;65.94;97225.19;4163722;33;20197;-82
2022/03/26 10:00:58;;;;;;;;;;;6.00;69.70;;;4.74;65.90;97223.50;4176447;33;19909;-82
2022/03/26 10:03:27;;;;;;;;;;;6.00;69.70;;;4.73;66.35;97200.13;4153005;33;20192;-82
2022/03/26 10:06:02;;;;;;;;;;;5.90;69.70;;;4.69;66.50;97216.00;4155197;33;20462;-82
2022/03/26 10:08:35;;;;;;;;;;;5.90;69.80;;;4.69;66.46;97215.19;4178166;33;19909;-82
2022/03/26 10:11:04;;;;;;;;;;;5.90;69.90;;;4.68;66.21;97214.31;4258978;33;19977;-82
2022/03/26 10:13:39;;;;;;;;;;;5.90;69.80;;;4.68;65.99;97208.06;4258657;33;19923;-82
2022/03/26 10:16:10;;;;;;;;;;;5.90;70.00;;;4.67;66.59;97206.41;4211356;33;20052;-82
2022/03/26 10:18:40;;;;;;;;;;;5.90;70.00;;;4.66;66.60;97204.72;4235052;33;20146;-82
2022/03/26 10:21:09;;;;;;;;;;;5.90;70.00;;;4.63;66.47;97200.56;4235210;33;19910;-82
2022/03/26 10:23:37;;;;;;;;;;;5.90;71.00;;;4.62;66.51;97198.91;4235007;33;19903;-82
2022/03/26 10:26:07;;;;;;;;;;;5.90;70.00;;;4.60;66.40;97196.38;4229989;33;19910;-82
2022/03/26 10:28:36;;;;;;;;;;;5.90;70.10;;;4.60;66.46;97201.78;4194927;33;19902;-82
2022/03/26 10:34:07;;;;;;;;;;;5.80;70.10;;;4.57;67.07;97196.81;4240891;33;20094;-82
2022/03/26 10:36:38;;;;;;;;;;;5.80;70.20;;;4.56;66.53;97188.88;4263336;33;19978;-82
2022/03/26 10:39:07;;;;;;;;;;;5.80;70.20;;;4.54;66.85;97190.94;4254932;33;20036;-82
2022/03/26 10:41:35;;;;;;;;;;;5.80;70.40;;;4.52;67.19;97180.31;4238557;33;20149;-82
2022/03/26 10:44:13;;;;;;;;;;;5.80;70.40;;;4.49;67.21;97167.16;4257125;33;20184;-82
2022/03/26 10:46:48;;;;;;;;;;;5.80;70.50;;;4.52;67.27;97168.66;4209420;33;20283;-82
2022/03/26 10:49:27;;;;;;;;;;;5.80;70.50;;;4.50;66.75;97166.13;4256801;33;19995;-83
2022/03/26 10:51:55;;;;;;;;;;;5.70;71.30;;;4.48;66.84;97165.50;4233353;33;20123;-83
2022/03/26 10:54:31;;;;;;;;;;;5.70;70.70;;;4.48;67.18;97161.97;4233187;33;20060;-83
2022/03/26 10:57:01;;;;;;;;;;;5.70;70.60;;;4.47;67.46;97158.41;4225948;33;20021;-83
2022/03/26 10:59:29;;;;;;;;;;;5.70;70.70;;;4.46;66.93;97151.31;4258237;33;20211;-83
2022/03/26 11:02:00;;;;;;;;;;;5.70;70.70;;;4.44;67.35;97139.88;4234694;33;20209;-82
2022/03/26 11:04:28;;;;;;;;;;;5.70;70.80;;;4.43;67.01;97136.31;4234779;33;19902;-83
2022/03/26 11:06:57;;;;;;;;;;;5.70;70.80;;;4.42;67.50;97137.34;4258620;33;20122;-82
2022/03/26 11:09:27;;;;;;;;;;;5.70;70.90;;;4.41;67.46;97135.66;4234548;33;20121;-83
2022/03/26 11:11:56;;;;;;;;;;;5.70;70.90;;;4.40;67.34;97133.19;4234860;33;20142;-82
2022/03/26 11:14:29;;;;;;;;;;;5.70;71.00;;;4.41;67.55;97126.72;4237154;33;19902;-83
2022/03/26 11:17:15;;;;;;;;;;;5.70;71.10;;;4.40;67.48;97120.44;4262657;33;19902;-82
2022/03/26 11:20:14;;;;;;;;;;;5.70;71.10;;;4.38;67.22;97113.56;4263362;33;20084;-82
2022/03/26 11:22:58;;;;;;;;;;;5.60;71.00;;;4.38;67.72;97102.72;4261995;33;20146;-83
2022/03/26 11:26:07;;;;;;;;;;;5.60;71.10;;;4.38;67.60;97100.03;4287367;32;19901;-82
2022/03/26 11:29:14;;;;;;;;;;;5.60;71.10;;;4.37;67.49;97103.75;4238919;33;19939;-83
2022/03/26 11:31:48;;;;;;;;;;;5.60;71.10;;;4.36;67.60;97092.09;4159504;33;20119;-82
2022/03/26 11:34:19;;;;;;;;;;;5.60;71.20;;;4.36;67.46;97091.25;4252256;33;20028;-83
2022/03/26 11:36:48;;;;;;;;;;;5.60;71.30;;;4.34;67.91;97083.34;4262302;33;20233;-82
2022/03/26 11:39:18;;;;;;;;;;;5.60;71.30;;;4.34;67.65;97080.63;4262917;33;20224;-83
2022/03/26 11:41:46;;;;;;;;;;;5.60;71.30;;;4.34;67.58;97074.34;4262824;33;19953;-83
2022/03/26 11:44:17;;;;;;;;;;;5.60;71.40;;;4.35;67.74;97067.91;4287146;33;19949;-83
2022/03/26 11:52:25;;;;;;;;;;;5.60;71.50;;;4.33;67.69;97059.97;4263791;33;20102;-83
2022/03/26 11:55:01;;;;;;;;;;;5.60;71.50;;;4.30;67.85;97053.13;4262442;33;19909;-83
2022/03/26 11:57:30;;;;;;;;;;;5.60;71.60;;;4.31;67.93;97045.81;4263284;33;19923;-83